This is the latest recevied weather packets stored in our database for station/object IW2LSY-11. If no packets are shown the sender has not sent any weather packets the latest 10 day(s).
| Time | Temp. | Humidity | Pressure | Rain* | Wind** | Luminosity | Snow |
|---|---|---|---|---|---|---|---|
| 1777521610 | 11.67° C | 89% | 1021.6 hPa | - | - | 296 W/m² | - |
| 1777521010 | 12.22° C | 85% | 1021.6 hPa | - | - | 296 W/m² | - |
| 1777520410 | 11.67° C | 86% | 1021.6 hPa | - | - | 296 W/m² | - |
| 1777519810 | 11.67° C | 87% | 1021.6 hPa | - | - | 297 W/m² | - |
| 1777519211 | 11.67° C | 85% | 1021.6 hPa | - | - | 297 W/m² | - |
| 1777518611 | 11.67° C | 86% | 1021.6 hPa | - | - | 298 W/m² | - |
| 1777518012 | 12.22° C | 84% | 1021.6 hPa | - | - | 298 W/m² | - |
| 1777517412 | 11.67° C | 85% | 1021.5 hPa | - | - | 298 W/m² | - |
| 1777516813 | 12.22° C | 85% | 1021.5 hPa | - | - | 299 W/m² | - |
| 1777516213 | 12.22° C | 83% | 1021.5 hPa | - | - | 299 W/m² | - |
| 1777515613 | 12.22° C | 84% | 1021.4 hPa | - | - | 300 W/m² | - |
| 1777515013 | 12.78° C | 83% | 1021.5 hPa | - | - | 300 W/m² | - |
| 1777514413 | 11.67° C | 88% | 1021.4 hPa | - | - | 300 W/m² | - |
| 1777513813 | 12.78° C | 83% | 1021.5 hPa | - | - | 300 W/m² | - |
| 1777513214 | 12.22° C | 86% | 1021.5 hPa | - | - | 301 W/m² | - |
| 1777512615 | 12.22° C | 85% | 1021.4 hPa | - | - | 301 W/m² | - |
| 1777512004 | 12.78° C | 84% | 1021.4 hPa | - | - | 301 W/m² | - |
| 1777511405 | 12.22° C | 88% | 1021.4 hPa | - | - | 301 W/m² | - |
| 1777510805 | 12.22° C | 88% | 1021.4 hPa | - | - | 302 W/m² | - |
| 1777510206 | 12.22° C | 88% | 1021.4 hPa | - | - | 303 W/m² | - |
| 1777509606 | 12.22° C | 86% | 1021.3 hPa | - | - | 303 W/m² | - |
| 1777509007 | 12.22° C | 90% | 1021.2 hPa | - | - | 303 W/m² | - |
| 1777508407 | 12.78° C | 87% | 1021.3 hPa | - | - | 303 W/m² | - |
| 1777507807 | 12.22° C | 92% | 1021.1 hPa | - | - | 304 W/m² | - |
| 1777507208 | 12.22° C | 93% | 1021.1 hPa | - | - | 305 W/m² | - |
* Rain since midnight (hover to see other rain measurements)
** Current wind speed in m/s (hover to see current wind gust speed)